sensor_id;sensor_type;location;lat;lon;timestamp;P1;durP1;ratioP1;P2;durP2;ratioP2
43803;SDS011;29430;52.924;-2.388;2022-11-20T00:03:35;8.73;;;3.17;;
43803;SDS011;29430;52.924;-2.388;2022-11-20T00:08:27;10.65;;;2.85;;
43803;SDS011;29430;52.924;-2.388;2022-11-20T00:13:18;9.02;;;2.85;;
43803;SDS011;29430;52.924;-2.388;2022-11-20T00:18:10;10.63;;;2.78;;
43803;SDS011;29430;52.924;-2.388;2022-11-20T00:23:02;9.77;;;2.63;;
43803;SDS011;29430;52.924;-2.388;2022-11-20T00:27:53;13.18;;;2.83;;
43803;SDS011;29430;52.924;-2.388;2022-11-20T00:32:45;6.25;;;1.45;;
43803;SDS011;29430;52.924;-2.388;2022-11-20T00:37:37;4.32;;;1.20;;
43803;SDS011;29430;52.924;-2.388;2022-11-20T00:42:28;5.72;;;0.90;;
43803;SDS011;29430;52.924;-2.388;2022-11-20T00:47:20;6.63;;;1.00;;
43803;SDS011;29430;52.924;-2.388;2022-11-20T00:52:12;4.65;;;0.93;;
43803;SDS011;29430;52.924;-2.388;2022-11-20T00:57:04;3.35;;;0.70;;
43803;SDS011;29430;52.924;-2.388;2022-11-20T01:01:56;6.30;;;0.70;;
43803;SDS011;29430;52.924;-2.388;2022-11-20T01:06:47;5.22;;;1.02;;
43803;SDS011;29430;52.924;-2.388;2022-11-20T01:11:40;6.53;;;1.00;;
43803;SDS011;29430;52.924;-2.388;2022-11-20T01:16:34;4.70;;;0.90;;
43803;SDS011;29430;52.924;-2.388;2022-11-20T01:21:29;5.25;;;0.63;;
43803;SDS011;29430;52.924;-2.388;2022-11-20T01:26:23;6.25;;;0.80;;
43803;SDS011;29430;52.924;-2.388;2022-11-20T01:31:18;4.40;;;0.60;;
43803;SDS011;29430;52.924;-2.388;2022-11-20T01:36:13;5.88;;;0.80;;
43803;SDS011;29430;52.924;-2.388;2022-11-20T01:41:06;7.30;;;0.90;;
43803;SDS011;29430;52.924;-2.388;2022-11-20T01:50:55;4.15;;;0.50;;
43803;SDS011;29430;52.924;-2.388;2022-11-20T01:55:49;5.30;;;0.70;;
43803;SDS011;29430;52.924;-2.388;2022-11-20T02:00:43;4.28;;;0.77;;
43803;SDS011;29430;52.924;-2.388;2022-11-20T02:05:43;5.28;;;1.13;;
43803;SDS011;29430;52.924;-2.388;2022-11-20T02:10:40;6.00;;;0.90;;
43803;SDS011;29430;52.924;-2.388;2022-11-20T02:15:32;3.60;;;0.77;;
43803;SDS011;29430;52.924;-2.388;2022-11-20T02:20:24;5.10;;;0.95;;
43803;SDS011;29430;52.924;-2.388;2022-11-20T02:25:16;7.13;;;1.33;;
43803;SDS011;29430;52.924;-2.388;2022-11-20T02:30:10;6.03;;;1.15;;
43803;SDS011;29430;52.924;-2.388;2022-11-20T02:40:09;3.60;;;1.05;;
43803;SDS011;29430;52.924;-2.388;2022-11-20T02:45:01;5.25;;;1.05;;
43803;SDS011;29430;52.924;-2.388;2022-11-20T02:49:54;4.05;;;0.90;;
43803;SDS011;29430;52.924;-2.388;2022-11-20T02:54:45;3.50;;;0.80;;
43803;SDS011;29430;52.924;-2.388;2022-11-20T02:59:37;4.05;;;0.80;;
43803;SDS011;29430;52.924;-2.388;2022-11-20T03:04:29;4.38;;;0.90;;
43803;SDS011;29430;52.924;-2.388;2022-11-20T03:09:20;4.13;;;1.02;;
43803;SDS011;29430;52.924;-2.388;2022-11-20T03:14:13;3.72;;;0.85;;
43803;SDS011;29430;52.924;-2.388;2022-11-20T03:19:05;5.28;;;0.70;;
43803;SDS011;29430;52.924;-2.388;2022-11-20T03:23:57;2.70;;;0.60;;
43803;SDS011;29430;52.924;-2.388;2022-11-20T03:28:50;2.17;;;0.70;;
43803;SDS011;29430;52.924;-2.388;2022-11-20T03:33:42;1.58;;;0.60;;
43803;SDS011;29430;52.924;-2.388;2022-11-20T03:38:34;5.00;;;0.93;;
43803;SDS011;29430;52.924;-2.388;2022-11-20T03:43:26;3.80;;;1.10;;
43803;SDS011;29430;52.924;-2.388;2022-11-20T03:48:18;4.53;;;1.00;;
43803;SDS011;29430;52.924;-2.388;2022-11-20T03:53:10;5.15;;;1.60;;
43803;SDS011;29430;52.924;-2.388;2022-11-20T03:58:02;3.65;;;1.35;;
43803;SDS011;29430;52.924;-2.388;2022-11-20T04:02:53;3.70;;;1.88;;
43803;SDS011;29430;52.924;-2.388;2022-11-20T04:07:49;5.63;;;1.27;;
43803;SDS011;29430;52.924;-2.388;2022-11-20T04:12:41;3.33;;;1.40;;
43803;SDS011;29430;52.924;-2.388;2022-11-20T04:17:33;3.80;;;1.80;;
43803;SDS011;29430;52.924;-2.388;2022-11-20T04:22:24;7.25;;;2.28;;
43803;SDS011;29430;52.924;-2.388;2022-11-20T04:27:16;4.88;;;1.95;;
43803;SDS011;29430;52.924;-2.388;2022-11-20T04:32:08;5.70;;;2.70;;
43803;SDS011;29430;52.924;-2.388;2022-11-20T04:37:00;5.22;;;2.10;;
43803;SDS011;29430;52.924;-2.388;2022-11-20T04:41:52;5.72;;;2.10;;
43803;SDS011;29430;52.924;-2.388;2022-11-20T04:47:03;4.28;;;1.60;;
43803;SDS011;29430;52.924;-2.388;2022-11-20T04:51:55;5.75;;;1.45;;
43803;SDS011;29430;52.924;-2.388;2022-11-20T04:56:47;4.35;;;1.40;;
43803;SDS011;29430;52.924;-2.388;2022-11-20T05:01:41;5.38;;;1.60;;
43803;SDS011;29430;52.924;-2.388;2022-11-20T05:06:33;5.82;;;1.73;;
43803;SDS011;29430;52.924;-2.388;2022-11-20T05:11:25;4.15;;;1.55;;
43803;SDS011;29430;52.924;-2.388;2022-11-20T05:16:18;4.68;;;1.40;;
43803;SDS011;29430;52.924;-2.388;2022-11-20T05:21:12;4.93;;;2.22;;
43803;SDS011;29430;52.924;-2.388;2022-11-20T05:26:05;7.90;;;1.55;;
43803;SDS011;29430;52.924;-2.388;2022-11-20T05:31:05;3.30;;;1.45;;
43803;SDS011;29430;52.924;-2.388;2022-11-20T05:35:58;3.85;;;1.70;;
43803;SDS011;29430;52.924;-2.388;2022-11-20T05:40:50;3.45;;;1.55;;
43803;SDS011;29430;52.924;-2.388;2022-11-20T05:45:42;5.43;;;1.70;;
43803;SDS011;29430;52.924;-2.388;2022-11-20T05:50:33;4.65;;;1.55;;
43803;SDS011;29430;52.924;-2.388;2022-11-20T05:55:25;4.63;;;2.22;;
43803;SDS011;29430;52.924;-2.388;2022-11-20T06:00:18;2.80;;;1.42;;
43803;SDS011;29430;52.924;-2.388;2022-11-20T06:05:09;7.18;;;3.33;;
43803;SDS011;29430;52.924;-2.388;2022-11-20T06:10:01;3.80;;;1.70;;
43803;SDS011;29430;52.924;-2.388;2022-11-20T06:14:53;4.38;;;1.35;;
43803;SDS011;29430;52.924;-2.388;2022-11-20T06:19:45;4.10;;;1.48;;
43803;SDS011;29430;52.924;-2.388;2022-11-20T06:24:36;3.38;;;1.25;;
43803;SDS011;29430;52.924;-2.388;2022-11-20T06:29:28;2.60;;;0.90;;
43803;SDS011;29430;52.924;-2.388;2022-11-20T06:34:24;2.83;;;1.23;;
43803;SDS011;29430;52.924;-2.388;2022-11-20T06:39:16;4.78;;;0.82;;
43803;SDS011;29430;52.924;-2.388;2022-11-20T06:44:07;2.95;;;1.20;;
43803;SDS011;29430;52.924;-2.388;2022-11-20T06:48:59;5.65;;;1.80;;
43803;SDS011;29430;52.924;-2.388;2022-11-20T06:53:51;3.88;;;0.90;;
43803;SDS011;29430;52.924;-2.388;2022-11-20T06:58:42;3.88;;;0.73;;
43803;SDS011;29430;52.924;-2.388;2022-11-20T07:03:34;3.47;;;0.80;;
43803;SDS011;29430;52.924;-2.388;2022-11-20T07:08:26;4.50;;;0.80;;
43803;SDS011;29430;52.924;-2.388;2022-11-20T07:13:18;7.25;;;0.90;;
43803;SDS011;29430;52.924;-2.388;2022-11-20T07:18:10;4.50;;;0.68;;
43803;SDS011;29430;52.924;-2.388;2022-11-20T07:23:02;4.13;;;0.60;;
43803;SDS011;29430;52.924;-2.388;2022-11-20T07:27:57;3.25;;;0.52;;
43803;SDS011;29430;52.924;-2.388;2022-11-20T07:32:53;6.53;;;0.70;;
43803;SDS011;29430;52.924;-2.388;2022-11-20T07:37:46;7.70;;;0.68;;
43803;SDS011;29430;52.924;-2.388;2022-11-20T07:42:46;8.93;;;0.50;;
43803;SDS011;29430;52.924;-2.388;2022-11-20T07:47:41;6.82;;;0.93;;
43803;SDS011;29430;52.924;-2.388;2022-11-20T07:52:33;7.78;;;0.60;;
43803;SDS011;29430;52.924;-2.388;2022-11-20T07:57:25;7.10;;;0.70;;
43803;SDS011;29430;52.924;-2.388;2022-11-20T08:02:18;7.82;;;0.63;;
43803;SDS011;29430;52.924;-2.388;2022-11-20T08:07:10;8.88;;;1.15;;
43803;SDS011;29430;52.924;-2.388;2022-11-20T08:12:02;8.02;;;0.43;;
43803;SDS011;29430;52.924;-2.388;2022-11-20T08:17:12;15.05;;;0.80;;
43803;SDS011;29430;52.924;-2.388;2022-11-20T08:22:06;10.40;;;0.95;;
43803;SDS011;29430;52.924;-2.388;2022-11-20T08:26:58;7.40;;;0.47;;
43803;SDS011;29430;52.924;-2.388;2022-11-20T08:31:50;10.00;;;0.93;;
43803;SDS011;29430;52.924;-2.388;2022-11-20T08:36:42;8.70;;;0.47;;
43803;SDS011;29430;52.924;-2.388;2022-11-20T08:41:34;5.43;;;0.57;;
43803;SDS011;29430;52.924;-2.388;2022-11-20T08:46:26;7.03;;;0.90;;
43803;SDS011;29430;52.924;-2.388;2022-11-20T08:51:20;7.53;;;0.85;;
43803;SDS011;29430;52.924;-2.388;2022-11-20T08:56:12;10.18;;;1.02;;
43803;SDS011;29430;52.924;-2.388;2022-11-20T09:01:04;8.30;;;0.70;;
43803;SDS011;29430;52.924;-2.388;2022-11-20T09:05:59;13.90;;;1.25;;
43803;SDS011;29430;52.924;-2.388;2022-11-20T09:10:53;7.55;;;0.60;;
43803;SDS011;29430;52.924;-2.388;2022-11-20T09:15:45;13.95;;;0.90;;
43803;SDS011;29430;52.924;-2.388;2022-11-20T09:20:37;7.10;;;0.95;;
43803;SDS011;29430;52.924;-2.388;2022-11-20T09:25:29;14.57;;;0.90;;
43803;SDS011;29430;52.924;-2.388;2022-11-20T09:30:21;10.45;;;0.70;;
43803;SDS011;29430;52.924;-2.388;2022-11-20T09:35:13;9.38;;;1.35;;
43803;SDS011;29430;52.924;-2.388;2022-11-20T09:40:06;13.77;;;1.42;;
43803;SDS011;29430;52.924;-2.388;2022-11-20T09:45:20;12.65;;;1.00;;
43803;SDS011;29430;52.924;-2.388;2022-11-20T09:50:32;9.60;;;0.80;;
43803;SDS011;29430;52.924;-2.388;2022-11-20T09:55:47;6.78;;;0.70;;
43803;SDS011;29430;52.924;-2.388;2022-11-20T10:00:40;8.30;;;0.60;;
43803;SDS011;29430;52.924;-2.388;2022-11-20T10:05:48;12.40;;;1.00;;
43803;SDS011;29430;52.924;-2.388;2022-11-20T10:26:32;12.32;;;2.03;;
43803;SDS011;29430;52.924;-2.388;2022-11-20T10:31:28;9.43;;;0.60;;
43803;SDS011;29430;52.924;-2.388;2022-11-20T10:36:26;8.40;;;0.80;;
43803;SDS011;29430;52.924;-2.388;2022-11-20T10:41:29;8.80;;;0.77;;
43803;SDS011;29430;52.924;-2.388;2022-11-20T10:46:29;13.48;;;0.95;;
43803;SDS011;29430;52.924;-2.388;2022-11-20T10:56:22;12.45;;;1.02;;
43803;SDS011;29430;52.924;-2.388;2022-11-20T11:01:17;8.82;;;0.60;;
43803;SDS011;29430;52.924;-2.388;2022-11-20T11:06:17;12.02;;;0.63;;
43803;SDS011;29430;52.924;-2.388;2022-11-20T11:16:19;7.88;;;0.60;;
43803;SDS011;29430;52.924;-2.388;2022-11-20T11:21:19;9.93;;;0.70;;
43803;SDS011;29430;52.924;-2.388;2022-11-20T11:26:19;7.35;;;0.95;;
43803;SDS011;29430;52.924;-2.388;2022-11-20T11:31:21;13.48;;;1.20;;
43803;SDS011;29430;52.924;-2.388;2022-11-20T11:36:16;6.80;;;0.52;;
43803;SDS011;29430;52.924;-2.388;2022-11-20T11:41:17;10.73;;;1.50;;
43803;SDS011;29430;52.924;-2.388;2022-11-20T11:46:31;9.77;;;0.73;;
43803;SDS011;29430;52.924;-2.388;2022-11-20T11:51:31;7.68;;;0.50;;
43803;SDS011;29430;52.924;-2.388;2022-11-20T11:56:28;8.43;;;0.70;;
43803;SDS011;29430;52.924;-2.388;2022-11-20T12:06:32;7.43;;;1.02;;
43803;SDS011;29430;52.924;-2.388;2022-11-20T12:11:43;10.25;;;0.80;;
43803;SDS011;29430;52.924;-2.388;2022-11-20T12:16:41;11.05;;;0.73;;
43803;SDS011;29430;52.924;-2.388;2022-11-20T12:21:36;12.82;;;0.85;;
43803;SDS011;29430;52.924;-2.388;2022-11-20T12:37:07;13.32;;;1.17;;
43803;SDS011;29430;52.924;-2.388;2022-11-20T12:52:53;12.20;;;1.83;;
43803;SDS011;29430;52.924;-2.388;2022-11-20T13:08:24;11.52;;;1.10;;
43803;SDS011;29430;52.924;-2.388;2022-11-20T13:13:31;5.40;;;0.70;;
43803;SDS011;29430;52.924;-2.388;2022-11-20T13:18:37;11.85;;;0.90;;
43803;SDS011;29430;52.924;-2.388;2022-11-20T13:23:32;9.45;;;0.90;;
43803;SDS011;29430;52.924;-2.388;2022-11-20T13:28:27;18.27;;;1.13;;
43803;SDS011;29430;52.924;-2.388;2022-11-20T13:38:21;7.00;;;0.60;;
43803;SDS011;29430;52.924;-2.388;2022-11-20T13:43:19;7.03;;;0.63;;
43803;SDS011;29430;52.924;-2.388;2022-11-20T13:48:19;12.75;;;0.68;;
43803;SDS011;29430;52.924;-2.388;2022-11-20T14:03:12;2.55;;;0.20;;
43803;SDS011;29430;52.924;-2.388;2022-11-20T14:08:10;1.70;;;0.30;;
43803;SDS011;29430;52.924;-2.388;2022-11-20T14:13:10;1.80;;;0.20;;
43803;SDS011;29430;52.924;-2.388;2022-11-20T14:18:13;1.50;;;0.20;;
43803;SDS011;29430;52.924;-2.388;2022-11-20T14:23:07;2.67;;;0.10;;
43803;SDS011;29430;52.924;-2.388;2022-11-20T14:28:01;0.82;;;0.20;;
43803;SDS011;29430;52.924;-2.388;2022-11-20T14:32:55;1.30;;;0.20;;
43803;SDS011;29430;52.924;-2.388;2022-11-20T14:37:51;3.03;;;0.20;;
43803;SDS011;29430;52.924;-2.388;2022-11-20T14:42:44;1.90;;;0.20;;
43803;SDS011;29430;52.924;-2.388;2022-11-20T14:47:36;3.22;;;0.30;;
43803;SDS011;29430;52.924;-2.388;2022-11-20T14:52:28;3.60;;;0.20;;
43803;SDS011;29430;52.924;-2.388;2022-11-20T14:57:32;0.63;;;0.10;;
43803;SDS011;29430;52.924;-2.388;2022-11-20T15:02:25;0.20;;;0.00;;
43803;SDS011;29430;52.924;-2.388;2022-11-20T15:07:24;0.35;;;0.00;;
43803;SDS011;29430;52.924;-2.388;2022-11-20T15:12:18;0.43;;;0.03;;
43803;SDS011;29430;52.924;-2.388;2022-11-20T15:17:10;0.57;;;0.00;;
43803;SDS011;29430;52.924;-2.388;2022-11-20T15:22:03;0.57;;;0.10;;
43803;SDS011;29430;52.924;-2.388;2022-11-20T15:26:55;0.85;;;0.00;;
43803;SDS011;29430;52.924;-2.388;2022-11-20T15:31:48;0.50;;;0.10;;
43803;SDS011;29430;52.924;-2.388;2022-11-20T15:36:42;1.02;;;0.10;;
43803;SDS011;29430;52.924;-2.388;2022-11-20T15:41:35;0.57;;;0.10;;
43803;SDS011;29430;52.924;-2.388;2022-11-20T15:46:28;1.98;;;0.10;;
43803;SDS011;29430;52.924;-2.388;2022-11-20T15:51:26;0.95;;;0.10;;
43803;SDS011;29430;52.924;-2.388;2022-11-20T15:56:20;0.82;;;0.10;;
43803;SDS011;29430;52.924;-2.388;2022-11-20T16:01:13;1.13;;;0.20;;
43803;SDS011;29430;52.924;-2.388;2022-11-20T16:06:07;1.48;;;0.30;;
43803;SDS011;29430;52.924;-2.388;2022-11-20T16:10:59;1.65;;;0.25;;
43803;SDS011;29430;52.924;-2.388;2022-11-20T16:15:53;1.45;;;0.55;;
43803;SDS011;29430;52.924;-2.388;2022-11-20T16:20:50;0.73;;;0.20;;
43803;SDS011;29430;52.924;-2.388;2022-11-20T16:25:46;1.33;;;0.20;;
43803;SDS011;29430;52.924;-2.388;2022-11-20T16:30:38;1.70;;;0.93;;
43803;SDS011;29430;52.924;-2.388;2022-11-20T16:35:31;4.47;;;1.25;;
43803;SDS011;29430;52.924;-2.388;2022-11-20T16:40:23;4.45;;;0.80;;
43803;SDS011;29430;52.924;-2.388;2022-11-20T16:45:16;2.00;;;0.60;;
43803;SDS011;29430;52.924;-2.388;2022-11-20T16:50:16;2.42;;;0.50;;
43803;SDS011;29430;52.924;-2.388;2022-11-20T16:55:08;1.65;;;0.60;;
43803;SDS011;29430;52.924;-2.388;2022-11-20T17:00:00;2.70;;;0.60;;
43803;SDS011;29430;52.924;-2.388;2022-11-20T17:04:53;3.67;;;1.23;;
43803;SDS011;29430;52.924;-2.388;2022-11-20T17:09:45;5.35;;;2.05;;
43803;SDS011;29430;52.924;-2.388;2022-11-20T17:14:37;3.53;;;0.77;;
43803;SDS011;29430;52.924;-2.388;2022-11-20T17:19:29;3.40;;;0.70;;
43803;SDS011;29430;52.924;-2.388;2022-11-20T17:24:21;2.80;;;0.80;;
43803;SDS011;29430;52.924;-2.388;2022-11-20T17:29:18;2.35;;;0.50;;
43803;SDS011;29430;52.924;-2.388;2022-11-20T17:34:14;2.90;;;0.40;;
43803;SDS011;29430;52.924;-2.388;2022-11-20T17:39:07;1.60;;;0.45;;
43803;SDS011;29430;52.924;-2.388;2022-11-20T17:44:00;2.83;;;0.40;;
43803;SDS011;29430;52.924;-2.388;2022-11-20T17:48:52;2.85;;;0.70;;
43803;SDS011;29430;52.924;-2.388;2022-11-20T17:53:47;4.18;;;0.70;;
43803;SDS011;29430;52.924;-2.388;2022-11-20T17:58:41;3.15;;;0.70;;
43803;SDS011;29430;52.924;-2.388;2022-11-20T18:03:33;4.03;;;0.55;;
43803;SDS011;29430;52.924;-2.388;2022-11-20T18:08:26;2.13;;;0.50;;
43803;SDS011;29430;52.924;-2.388;2022-11-20T18:13:18;3.63;;;0.52;;
43803;SDS011;29430;52.924;-2.388;2022-11-20T18:18:09;2.92;;;0.93;;
43803;SDS011;29430;52.924;-2.388;2022-11-20T18:23:01;4.65;;;0.70;;
43803;SDS011;29430;52.924;-2.388;2022-11-20T18:27:53;4.38;;;1.00;;
43803;SDS011;29430;52.924;-2.388;2022-11-20T18:32:45;3.45;;;0.60;;
43803;SDS011;29430;52.924;-2.388;2022-11-20T18:37:36;3.65;;;0.50;;
43803;SDS011;29430;52.924;-2.388;2022-11-20T18:42:28;4.75;;;1.20;;
43803;SDS011;29430;52.924;-2.388;2022-11-20T18:47:38;9.18;;;2.08;;
43803;SDS011;29430;52.924;-2.388;2022-11-20T18:52:37;3.35;;;0.50;;
43803;SDS011;29430;52.924;-2.388;2022-11-20T18:57:32;4.60;;;0.50;;
43803;SDS011;29430;52.924;-2.388;2022-11-20T19:02:24;3.85;;;0.45;;
43803;SDS011;29430;52.924;-2.388;2022-11-20T19:07:18;2.83;;;0.30;;
43803;SDS011;29430;52.924;-2.388;2022-11-20T19:12:14;2.35;;;0.30;;
43803;SDS011;29430;52.924;-2.388;2022-11-20T19:17:06;3.67;;;0.38;;
43803;SDS011;29430;52.924;-2.388;2022-11-20T19:22:00;1.60;;;0.30;;
43803;SDS011;29430;52.924;-2.388;2022-11-20T19:26:52;2.80;;;0.30;;
43803;SDS011;29430;52.924;-2.388;2022-11-20T19:31:46;7.22;;;1.15;;
43803;SDS011;29430;52.924;-2.388;2022-11-20T19:36:38;2.67;;;0.60;;
43803;SDS011;29430;52.924;-2.388;2022-11-20T19:41:36;6.32;;;0.60;;
43803;SDS011;29430;52.924;-2.388;2022-11-20T19:46:29;4.40;;;0.50;;
43803;SDS011;29430;52.924;-2.388;2022-11-20T19:51:24;2.95;;;0.93;;
43803;SDS011;29430;52.924;-2.388;2022-11-20T19:56:18;4.38;;;0.60;;
43803;SDS011;29430;52.924;-2.388;2022-11-20T20:06:04;4.45;;;0.60;;
43803;SDS011;29430;52.924;-2.388;2022-11-20T20:11:17;3.40;;;0.40;;
43803;SDS011;29430;52.924;-2.388;2022-11-20T20:16:15;4.25;;;0.75;;
43803;SDS011;29430;52.924;-2.388;2022-11-20T20:21:10;7.13;;;0.65;;
43803;SDS011;29430;52.924;-2.388;2022-11-20T20:26:04;7.40;;;0.65;;
43803;SDS011;29430;52.924;-2.388;2022-11-20T20:31:20;4.10;;;0.73;;
43803;SDS011;29430;52.924;-2.388;2022-11-20T20:36:12;1.90;;;0.40;;
43803;SDS011;29430;52.924;-2.388;2022-11-20T20:41:05;2.33;;;0.40;;
43803;SDS011;29430;52.924;-2.388;2022-11-20T20:45:56;5.13;;;0.43;;
43803;SDS011;29430;52.924;-2.388;2022-11-20T20:50:52;4.38;;;0.45;;
43803;SDS011;29430;52.924;-2.388;2022-11-20T20:55:55;2.55;;;0.38;;
43803;SDS011;29430;52.924;-2.388;2022-11-20T21:00:46;3.05;;;0.25;;
43803;SDS011;29430;52.924;-2.388;2022-11-20T21:05:38;5.22;;;0.40;;
43803;SDS011;29430;52.924;-2.388;2022-11-20T21:10:30;2.97;;;0.63;;
43803;SDS011;29430;52.924;-2.388;2022-11-20T21:15:22;4.97;;;1.17;;
43803;SDS011;29430;52.924;-2.388;2022-11-20T21:20:14;3.00;;;0.50;;
43803;SDS011;29430;52.924;-2.388;2022-11-20T21:25:26;1.65;;;0.40;;
43803;SDS011;29430;52.924;-2.388;2022-11-20T21:30:18;2.65;;;0.50;;
43803;SDS011;29430;52.924;-2.388;2022-11-20T21:35:10;3.10;;;0.40;;
43803;SDS011;29430;52.924;-2.388;2022-11-20T21:40:02;2.17;;;0.43;;
43803;SDS011;29430;52.924;-2.388;2022-11-20T21:44:54;3.85;;;0.88;;
43803;SDS011;29430;52.924;-2.388;2022-11-20T21:49:45;4.95;;;0.40;;
43803;SDS011;29430;52.924;-2.388;2022-11-20T21:54:37;3.88;;;0.52;;
43803;SDS011;29430;52.924;-2.388;2022-11-20T21:59:29;3.50;;;0.30;;
43803;SDS011;29430;52.924;-2.388;2022-11-20T22:04:21;2.33;;;0.32;;
43803;SDS011;29430;52.924;-2.388;2022-11-20T22:09:13;2.15;;;0.30;;
43803;SDS011;29430;52.924;-2.388;2022-11-20T22:14:05;1.50;;;0.20;;
43803;SDS011;29430;52.924;-2.388;2022-11-20T22:19:16;2.40;;;0.30;;
43803;SDS011;29430;52.924;-2.388;2022-11-20T22:24:14;3.25;;;0.30;;
43803;SDS011;29430;52.924;-2.388;2022-11-20T22:29:09;2.58;;;0.20;;
43803;SDS011;29430;52.924;-2.388;2022-11-20T22:34:04;1.63;;;0.20;;
43803;SDS011;29430;52.924;-2.388;2022-11-20T22:38:56;2.85;;;0.30;;
43803;SDS011;29430;52.924;-2.388;2022-11-20T22:43:52;6.45;;;0.40;;
43803;SDS011;29430;52.924;-2.388;2022-11-20T22:48:50;1.73;;;0.40;;
43803;SDS011;29430;52.924;-2.388;2022-11-20T22:53:45;4.50;;;0.30;;
43803;SDS011;29430;52.924;-2.388;2022-11-20T22:58:38;6.85;;;0.85;;
43803;SDS011;29430;52.924;-2.388;2022-11-20T23:03:33;7.47;;;0.75;;
43803;SDS011;29430;52.924;-2.388;2022-11-20T23:08:25;5.88;;;0.60;;
43803;SDS011;29430;52.924;-2.388;2022-11-20T23:13:16;3.78;;;0.68;;
43803;SDS011;29430;52.924;-2.388;2022-11-20T23:18:08;13.48;;;1.40;;
43803;SDS011;29430;52.924;-2.388;2022-11-20T23:23:00;10.73;;;2.00;;
43803;SDS011;29430;52.924;-2.388;2022-11-20T23:27:52;8.75;;;2.00;;
43803;SDS011;29430;52.924;-2.388;2022-11-20T23:32:44;10.30;;;1.90;;
43803;SDS011;29430;52.924;-2.388;2022-11-20T23:37:36;4.18;;;0.55;;
43803;SDS011;29430;52.924;-2.388;2022-11-20T23:42:28;3.30;;;0.50;;
43803;SDS011;29430;52.924;-2.388;2022-11-20T23:47:20;3.42;;;0.60;;
43803;SDS011;29430;52.924;-2.388;2022-11-20T23:52:12;5.05;;;1.05;;
43803;SDS011;29430;52.924;-2.388;2022-11-20T23:57:04;4.43;;;0.60;;
